Time;durP1;ratioP1;P1;durP2;ratioP2;P2;SDS_P1;SDS_P2;PMS_P1;PMS_P2;Temp;Humidity;BMP_temperature;BMP_pressure;BME280_temperature;BME280_humidity;BME280_pressure;Samples;Min_cycle;Max_cycle;Signal;HPM_P1;HPM_P2
2022/02/21 08:20:30;;;;;;;14.20;7.00;;;;;;;8.35;78.70;97758.30;130399;1267;109136;-76
2022/02/21 08:23:35;;;;;;;12.30;5.50;;;;;;;8.50;78.32;97755.19;130421;1266;108912;-76
2022/02/21 08:26:42;;;;;;;58.70;28.00;;;;;;;8.59;78.13;97758.04;130313;1267;108885;-76
2022/02/21 08:29:47;;;;;;;23.90;10.10;;;;;;;8.65;77.96;97753.83;130409;1267;108778;-76
2022/02/21 08:32:53;;;;;;;58.50;23.30;;;;;;;8.69;77.79;97751.83;130296;1267;108723;-76
2022/02/21 08:35:59;;;;;;;34.40;14.30;;;;;;;8.74;77.77;97759.04;130302;1267;108950;-76
2022/02/21 08:39:05;;;;;;;25.10;11.90;;;;;;;8.82;77.59;97750.73;130401;1267;108765;-78
2022/02/21 08:42:11;;;;;;;25.30;11.60;;;;;;;8.93;77.41;97748.06;130282;1267;108549;-79
2022/02/21 08:45:17;;;;;;;48.50;19.90;;;;;;;9.05;77.25;97744.53;130361;1267;108991;-77
2022/02/21 08:48:23;;;;;;;25.60;12.20;;;;;;;9.13;77.06;97746.13;130367;1267;108588;-79
2022/02/21 08:51:29;;;;;;;55.00;25.60;;;;;;;9.19;76.66;97748.86;130372;1267;108723;-79
2022/02/21 08:54:35;;;;;;;99.90;34.30;;;;;;;9.24;76.78;97754.92;130313;1267;108845;-78
2022/02/21 08:57:41;;;;;;;151.70;62.90;;;;;;;9.30;76.63;97748.23;130582;1267;107072;-79
2022/02/21 09:00:47;;;;;;;37.00;20.00;;;;;;;9.32;76.53;97754.21;130415;1267;109165;-78
2022/02/21 09:03:52;;;;;;;4.80;2.80;;;;;;;9.34;76.33;97757.53;130321;1267;108952;-83
2022/02/21 09:06:57;;;;;;;3.20;2.20;;;;;;;9.38;75.95;97749.71;130412;1267;108894;-82
2022/02/21 09:10:04;;;;;;;3.10;1.90;;;;;;;9.44;75.72;97753.14;130345;1266;107304;-83
2022/02/21 09:13:09;;;;;;;2.80;1.70;;;;;;;9.51;75.87;97762.26;130542;1267;109042;-81
2022/02/21 09:16:15;;;;;;;2.90;1.60;;;;;;;9.57;75.46;97769.30;130460;1267;108752;-80
2022/02/21 09:19:20;;;;;;;4.30;1.80;;;;;;;9.60;75.45;97760.88;130566;1267;108725;-82
2022/02/21 09:22:25;;;;;;;2.60;1.60;;;;;;;9.63;75.59;97763.84;130495;1267;108885;-80
2022/02/21 09:25:31;;;;;;;4.60;2.60;;;;;;;9.65;75.38;97765.26;130502;1267;108252;-82
2022/02/21 09:28:37;;;;;;;5.70;3.50;;;;;;;9.64;75.07;97763.42;130583;1267;107985;-81
2022/02/21 09:31:42;;;;;;;9.30;4.60;;;;;;;9.66;75.02;97772.95;130449;1267;109300;-80
2022/02/21 09:34:48;;;;;;;11.00;5.40;;;;;;;9.72;75.34;97765.90;130358;1265;108703;-81
2022/02/21 09:37:54;;;;;;;5.10;2.60;;;;;;;9.83;74.86;97752.67;130499;1267;108768;-80
2022/02/21 09:40:59;;;;;;;15.90;7.90;;;;;;;9.95;74.67;97740.34;130476;1267;108901;-77
2022/02/21 09:44:05;;;;;;;4.70;2.70;;;;;;;10.11;74.63;97748.27;130308;1267;107145;-77
2022/02/21 09:47:11;;;;;;;11.40;5.40;;;;;;;10.20;74.25;97758.31;130314;1267;108889;-74
2022/02/21 09:50:17;;;;;;;5.30;2.80;;;;;;;10.26;73.08;97760.05;130300;1267;108858;-76
2022/02/21 09:53:22;;;;;;;7.10;2.80;;;;;;;10.31;73.68;97761.45;130406;1267;108903;-76
2022/02/21 09:56:27;;;;;;;10.80;4.80;;;;;;;10.36;73.17;97765.33;130421;1267;107879;-77
2022/02/21 09:59:33;;;;;;;10.20;3.70;;;;;;;10.36;72.40;97765.54;130308;1267;108862;-76
2022/02/21 10:02:39;;;;;;;5.20;2.50;;;;;;;10.37;72.90;97782.17;130319;1267;108775;-77
2022/02/21 10:05:48;;;;;;;81.80;34.50;;;;;;;10.40;72.36;97782.48;130349;1267;108834;-76
2022/02/21 10:09:07;;;;;;;33.80;17.00;;;;;;;10.42;72.23;97771.08;130380;1267;109125;-80
2022/02/21 10:12:23;;;;;;;56.90;30.90;;;;;;;10.39;71.55;97769.86;130349;1267;108965;-79
2022/02/21 10:15:31;;;;;;;14.40;9.20;;;;;;;10.33;71.77;97770.66;130244;1267;109824;-76
2022/02/21 10:18:37;;;;;;;18.10;11.70;;;;;;;10.30;71.26;97778.95;130342;1267;108824;-77
2022/02/21 10:22:06;;;;;;;13.50;8.50;;;;;;;10.31;71.52;97771.33;130290;1267;108650;-77
2022/02/21 10:25:21;;;;;;;19.40;12.30;;;;;;;10.32;71.24;97784.30;130182;1267;108667;-74
2022/02/21 10:28:29;;;;;;;22.80;13.70;;;;;;;10.23;70.24;97792.58;130363;1267;108750;-77
2022/02/21 10:31:35;;;;;;;37.80;21.50;;;;;;;10.09;70.41;97804.36;130311;1267;108965;-73
2022/02/21 10:34:42;;;;;;;15.10;9.10;;;;;;;9.95;70.16;97822.75;130291;1267;108780;-73
2022/02/21 10:37:50;;;;;;;21.10;13.50;;;;;;;9.81;69.94;97831.73;130177;1267;108742;-74
2022/02/21 10:41:07;;;;;;;18.20;10.00;;;;;;;9.66;69.28;97829.86;130323;1267;108730;-76
2022/02/21 10:44:19;;;;;;;12.10;7.40;;;;;;;9.52;69.05;97839.73;130326;1267;108585;-76
2022/02/21 10:47:25;;;;;;;41.90;25.50;;;;;;;9.39;67.90;97843.51;130361;1267;108939;-78
2022/02/21 10:50:32;;;;;;;29.00;18.50;;;;;;;9.31;68.72;97850.35;130154;1267;108708;-77
2022/02/21 10:53:44;;;;;;;17.70;10.80;;;;;;;9.23;66.65;97855.05;130228;1267;108768;-78
2022/02/21 10:56:50;;;;;;;28.40;18.60;;;;;;;9.15;67.66;97858.96;130261;1267;108750;-76
2022/02/21 10:59:56;;;;;;;10.80;5.90;;;;;;;9.13;65.70;97875.71;130303;1267;108986;-78
2022/02/21 11:03:02;;;;;;;21.60;12.30;;;;;;;9.14;65.38;97882.71;130319;1267;108875;-78
2022/02/21 11:06:08;;;;;;;39.90;25.00;;;;;;;9.12;64.94;97879.63;130341;1267;108639;-80
2022/02/21 11:09:15;;;;;;;16.40;9.10;;;;;;;9.06;65.95;97881.69;130480;1267;107403;-80
2022/02/21 11:12:25;;;;;;;20.90;10.50;;;;;;;8.99;64.97;97894.91;130342;1267;109026;-76
2022/02/21 11:15:31;;;;;;;7.30;4.40;;;;;;;8.83;64.51;97920.15;130344;1267;108715;-77
2022/02/21 11:18:37;;;;;;;20.70;10.70;;;;;;;8.39;66.07;97937.19;130232;1267;108964;-77
2022/02/21 11:21:44;;;;;;;26.50;15.40;;;;;;;8.04;67.21;97948.33;130298;1267;108956;-78
2022/02/21 11:24:52;;;;;;;17.90;10.40;;;;;;;7.94;67.39;97960.86;130358;1267;108796;-79
2022/02/21 11:28:03;;;;;;;10.80;7.50;;;;;;;7.84;67.48;97969.74;130318;1267;108632;-78
2022/02/21 11:31:09;;;;;;;16.30;10.40;;;;;;;7.79;66.78;97968.98;130155;1267;244511;-78
2022/02/21 11:34:15;;;;;;;26.20;16.90;;;;;;;7.72;66.47;97964.16;130343;1267;107128;-77
2022/02/21 11:37:25;;;;;;;7.60;4.70;;;;;;;7.80;67.17;97984.12;130272;1267;108854;-79
2022/02/21 11:40:49;;;;;;;11.00;5.30;;;;;;;7.83;65.21;97977.66;130341;1267;107505;-78
2022/02/21 11:43:54;;;;;;;24.20;13.70;;;;;;;7.83;66.28;97980.19;130238;1267;108869;-77
2022/02/21 11:47:11;;;;;;;34.40;19.60;;;;;;;7.93;66.70;97973.09;130320;1267;108828;-76
2022/02/21 11:50:29;;;;;;;22.00;12.10;;;;;;;8.03;66.63;97957.06;130539;1267;108764;-77
2022/02/21 11:53:34;;;;;;;19.80;10.30;;;;;;;8.07;66.56;97956.85;130287;1267;107811;-78
2022/02/21 11:57:05;;;;;;;19.20;11.00;;;;;;;8.01;65.95;97969.42;130346;1267;108720;-78
2022/02/21 12:00:38;;;;;;;11.60;5.60;;;;;;;7.96;65.93;97962.52;130327;1267;108809;-75
2022/02/21 12:03:44;;;;;;;13.30;6.90;;;;;;;7.98;66.04;97978.88;130363;1269;108742;-77
2022/02/21 12:06:58;;;;;;;14.20;7.20;;;;;;;8.00;65.70;97981.77;130232;1268;108691;-77
2022/02/21 12:10:22;;;;;;;12.30;5.80;;;;;;;8.08;66.05;97988.80;130345;1268;109065;-78
2022/02/21 12:13:28;;;;;;;9.60;4.70;;;;;;;8.16;65.37;97999.79;130306;1269;108723;-78
2022/02/21 12:16:33;;;;;;;8.90;4.20;;;;;;;8.25;64.50;98000.83;130254;1270;107579;-78
2022/02/21 12:19:40;;;;;;;10.00;5.30;;;;;;;8.34;64.57;98004.48;130443;1268;107695;-76
2022/02/21 12:23:09;;;;;;;18.00;9.20;;;;;;;8.43;64.32;98010.95;130243;1270;106981;-77
2022/02/21 12:26:18;;;;;;;12.00;5.80;;;;;;;8.50;63.34;98002.90;130149;1271;109213;-76
2022/02/21 12:29:27;;;;;;;190.30;69.10;;;;;;;8.53;63.36;98019.23;130126;1270;108703;-79
2022/02/21 12:32:34;;;;;;;243.20;96.40;;;;;;;8.53;63.21;98027.91;130228;1269;108935;-78
2022/02/21 12:35:52;;;;;;;108.10;46.60;;;;;;;8.52;63.19;98033.61;130344;1268;109004;-77
2022/02/21 12:39:01;;;;;;;27.70;15.90;;;;;;;8.57;63.10;98028.33;130174;1268;108839;-77
2022/02/21 12:42:08;;;;;;;21.80;14.50;;;;;;;8.62;63.11;98024.48;130325;1268;108851;-77
2022/02/21 12:45:20;;;;;;;31.50;20.00;;;;;;;8.58;62.87;98019.35;130470;1268;108664;-75
2022/02/21 12:48:26;;;;;;;8.80;4.50;;;;;;;8.61;63.55;98035.61;130510;1267;108937;-79
2022/02/21 12:51:34;;;;;;;7.50;3.80;;;;;;;8.73;63.35;98040.09;130290;1268;107791;-81
2022/02/21 12:54:52;;;;;;;11.40;5.10;;;;;;;8.82;62.81;98044.32;130466;1268;108707;-78
2022/02/21 12:57:57;;;;;;;5.40;3.30;;;;;;;8.79;62.51;98066.80;130335;1267;108820;-76
2022/02/21 13:01:03;;;;;;;6.10;2.90;;;;;;;8.71;61.81;98054.27;130388;1268;108810;-76
2022/02/21 13:04:09;;;;;;;4.90;2.50;;;;;;;8.65;62.00;98051.73;130309;1268;108910;-80
2022/02/21 13:07:15;;;;;;;7.60;3.50;;;;;;;8.73;62.04;98056.78;130197;1268;108834;-78
2022/02/21 13:10:21;;;;;;;3.70;2.00;;;;;;;8.73;61.73;98069.09;130289;1267;108868;-77
2022/02/21 13:13:26;;;;;;;6.90;4.70;;;;;;;8.72;61.76;98076.16;130339;1267;108921;-80
2022/02/21 13:16:34;;;;;;;4.40;2.20;;;;;;;8.66;62.17;98086.06;130357;1268;108457;-78
2022/02/21 13:19:41;;;;;;;9.10;6.20;;;;;;;8.64;61.69;98078.98;130391;1268;108883;-76
2022/02/21 13:22:47;;;;;;;9.20;7.30;;;;;;;8.56;60.76;98094.70;130350;1268;108981;-77
2022/02/21 13:25:53;;;;;;;105.90;52.40;;;;;;;8.50;60.86;98092.98;130362;1268;108920;-76
2022/02/21 13:28:58;;;;;;;61.80;31.90;;;;;;;8.44;60.42;98096.03;130433;1268;108753;-78
2022/02/21 13:32:06;;;;;;;49.00;25.50;;;;;;;8.40;60.91;98114.58;130402;1268;108767;-77
2022/02/21 13:35:13;;;;;;;41.00;23.20;;;;;;;8.38;60.88;98129.77;130262;1268;108956;-77
2022/02/21 13:38:23;;;;;;;70.70;33.00;;;;;;;8.33;60.47;98143.66;130590;1268;107772;-73
2022/02/21 13:41:43;;;;;;;39.60;20.20;;;;;;;8.31;60.50;98150.48;130489;1268;107743;-75
2022/02/21 13:44:48;;;;;;;38.70;20.10;;;;;;;8.26;60.46;98139.67;130302;1268;108927;-73
2022/02/21 13:48:07;;;;;;;60.30;25.60;;;;;;;8.24;60.57;98149.91;130310;1267;108781;-74
2022/02/21 13:51:18;;;;;;;59.60;26.40;;;;;;;8.24;60.44;98141.83;130362;1267;108684;-73
2022/02/21 13:54:30;;;;;;;53.60;25.40;;;;;;;8.17;60.46;98157.17;130328;1268;109567;-76
2022/02/21 13:57:36;;;;;;;65.10;26.60;;;;;;;8.11;60.78;98162.46;130371;1268;108697;-76
2022/02/21 14:00:45;;;;;;;73.90;28.90;;;;;;;8.05;60.39;98157.41;130306;1268;108842;-73
2022/02/21 14:03:53;;;;;;;47.80;19.90;;;;;;;7.98;59.92;98163.34;130318;1268;108690;-77
2022/02/21 14:07:07;;;;;;;418.50;167.90;;;;;;;8.01;59.81;98161.62;130311;1268;109690;-76
2022/02/21 14:10:15;;;;;;;134.50;72.80;;;;;;;8.03;59.55;98171.08;130310;1268;108740;-75
2022/02/21 14:13:21;;;;;;;20.40;10.50;;;;;;;8.00;59.67;98172.80;130292;1267;108792;-73
2022/02/21 14:16:28;;;;;;;12.00;4.90;;;;;;;7.96;58.97;98165.54;130325;1268;108847;-75
2022/02/21 14:19:34;;;;;;;8.00;4.20;;;;;;;7.91;58.95;98167.11;130367;1267;109016;-76
2022/02/21 14:22:39;;;;;;;11.10;5.80;;;;;;;7.84;58.48;98172.11;130332;1267;108981;-74
2022/02/21 14:25:45;;;;;;;11.20;5.10;;;;;;;7.75;58.45;98158.15;130365;1268;108822;-76
2022/02/21 14:28:51;;;;;;;10.60;4.70;;;;;;;7.79;59.08;98165.70;130321;1268;108711;-77
2022/02/21 14:31:56;;;;;;;5.60;3.00;;;;;;;7.87;58.91;98166.70;130338;1268;108926;-77
2022/02/21 14:35:03;;;;;;;16.80;7.60;;;;;;;7.88;59.06;98168.34;130354;1267;108875;-76
2022/02/21 14:38:10;;;;;;;14.20;5.50;;;;;;;7.80;58.19;98165.91;130524;1267;108778;-77
2022/02/21 14:41:15;;;;;;;10.00;5.70;;;;;;;7.76;57.82;98164.77;130367;1268;109464;-76
2022/02/21 14:44:21;;;;;;;20.80;11.10;;;;;;;7.72;56.03;98176.40;130407;1268;108812;-77
2022/02/21 14:47:26;;;;;;;26.20;14.10;;;;;;;7.73;58.06;98188.84;130465;1267;108142;-77
2022/02/21 14:50:32;;;;;;;45.30;24.20;;;;;;;7.85;58.30;98190.95;130382;1267;108788;-78
2022/02/21 14:53:37;;;;;;;26.50;11.60;;;;;;;7.87;56.51;98195.40;130358;1267;108694;-78
2022/02/21 14:56:43;;;;;;;85.10;42.10;;;;;;;7.74;57.45;98193.17;130384;1268;108623;-79
2022/02/21 14:59:49;;;;;;;78.40;40.40;;;;;;;7.62;57.35;98205.43;130498;1268;109048;-75
2022/02/21 15:02:55;;;;;;;42.20;20.90;;;;;;;7.52;57.39;98209.31;130406;1268;108856;-76
2022/02/21 15:06:00;;;;;;;54.90;25.80;;;;;;;7.45;57.41;98209.02;130368;1268;108646;-75
2022/02/21 15:09:05;;;;;;;29.60;13.60;;;;;;;7.37;57.21;98205.23;130391;1268;108945;-72
2022/02/21 15:12:11;;;;;;;24.40;10.10;;;;;;;7.32;57.07;98206.75;130500;1268;108874;-73
2022/02/21 15:15:16;;;;;;;61.80;26.00;;;;;;;7.29;57.34;98204.88;130387;1268;108736;-74
2022/02/21 15:18:22;;;;;;;89.50;32.90;;;;;;;7.26;57.57;98208.42;130460;1268;108821;-72
2022/02/21 15:21:27;;;;;;;25.90;12.70;;;;;;;7.21;57.52;98206.07;130391;1267;108944;-75
2022/02/21 15:24:32;;;;;;;13.10;4.70;;;;;;;7.12;57.15;98203.80;130419;1268;108743;-73
2022/02/21 15:27:38;;;;;;;21.30;10.80;;;;;;;6.98;57.49;98198.33;130401;1267;108772;-73
2022/02/21 15:30:43;;;;;;;12.00;6.30;;;;;;;6.87;57.40;98195.20;130319;1268;108770;-73
2022/02/21 15:33:50;;;;;;;11.40;6.10;;;;;;;6.76;57.73;98198.44;130363;1268;109052;-73
2022/02/21 15:36:56;;;;;;;14.40;5.10;;;;;;;6.68;57.48;98203.86;130377;1266;108777;-73
2022/02/21 15:40:01;;;;;;;11.80;5.60;;;;;;;6.61;57.60;98213.45;130371;1267;108792;-74
2022/02/21 15:43:07;;;;;;;25.70;12.50;;;;;;;6.53;57.52;98210.45;130430;1267;108717;-73
2022/02/21 15:46:15;;;;;;;36.70;16.50;;;;;;;6.42;57.46;98221.73;130489;1267;108835;-73
2022/02/21 15:49:20;;;;;;;130.60;52.10;;;;;;;6.32;57.75;98216.21;130431;1267;108872;-73
2022/02/21 15:52:25;;;;;;;28.30;14.20;;;;;;;6.23;57.66;98221.98;130400;1267;108918;-75
2022/02/21 15:55:33;;;;;;;12.60;6.40;;;;;;;6.18;57.84;98220.96;130377;1267;108725;-74
2022/02/21 15:58:39;;;;;;;14.40;7.60;;;;;;;6.14;57.78;98225.69;130375;1268;108582;-73
2022/02/21 16:01:44;;;;;;;22.90;12.50;;;;;;;6.05;57.47;98226.14;130395;1267;108843;-72
2022/02/21 16:04:50;;;;;;;29.10;18.70;;;;;;;5.99;57.40;98236.23;130521;1267;108869;-73
2022/02/21 16:07:55;;;;;;;33.60;19.10;;;;;;;5.92;57.64;98245.26;130438;1267;108682;-73
2022/02/21 16:11:01;;;;;;;77.20;38.20;;;;;;;5.84;57.39;98249.10;130423;1267;109758;-74
2022/02/21 16:14:06;;;;;;;24.40;11.80;;;;;;;5.81;57.00;98258.47;130373;1267;108781;-72
2022/02/21 16:17:13;;;;;;;20.30;9.60;;;;;;;5.80;57.04;98261.39;130409;1267;108795;-74
2022/02/21 16:20:19;;;;;;;24.60;11.00;;;;;;;5.80;56.90;98268.88;130472;1267;108828;-75
2022/02/21 16:23:24;;;;;;;52.00;24.10;;;;;;;5.78;56.36;98275.23;130385;1267;109064;-74
2022/02/21 16:26:30;;;;;;;29.40;15.70;;;;;;;5.78;56.65;98280.35;130394;1267;108960;-74
2022/02/21 16:29:35;;;;;;;34.20;18.00;;;;;;;5.75;56.62;98274.02;130392;1267;108787;-74
2022/02/21 16:32:41;;;;;;;57.10;28.80;;;;;;;5.72;56.98;98275.71;130474;1267;108799;-74
2022/02/21 16:35:46;;;;;;;57.80;26.70;;;;;;;5.66;56.72;98280.80;130342;1267;108855;-73
2022/02/21 16:38:58;;;;;;;45.70;15.00;;;;;;;5.56;56.65;98283.10;130370;1267;108719;-75
2022/02/21 16:42:07;;;;;;;86.70;33.30;;;;;;;5.43;56.30;98286.48;130212;1266;108024;-73
2022/02/21 16:45:14;;;;;;;56.00;20.20;;;;;;;5.33;56.43;98292.17;130334;1267;108725;-74
2022/02/21 16:48:19;;;;;;;34.40;14.80;;;;;;;5.26;56.50;98289.74;130376;1267;108755;-73
2022/02/21 16:51:25;;;;;;;28.50;12.90;;;;;;;5.19;56.65;98289.33;130396;1267;107534;-73
2022/02/21 16:54:30;;;;;;;46.00;20.50;;;;;;;5.11;56.48;98297.20;130336;1267;108599;-74
2022/02/21 16:57:38;;;;;;;21.40;7.50;;;;;;;5.01;56.63;98305.26;130371;1267;108818;-74
2022/02/21 17:00:43;;;;;;;70.00;26.20;;;;;;;4.94;56.52;98311.92;130465;1267;108846;-72
2022/02/21 17:03:50;;;;;;;107.70;45.80;;;;;;;4.90;56.87;98313.55;130422;1267;108824;-73
2022/02/21 17:06:56;;;;;;;111.80;56.50;;;;;;;4.86;56.97;98316.39;130412;1267;108827;-74
2022/02/21 17:10:02;;;;;;;114.00;49.70;;;;;;;4.83;56.98;98316.29;131587;1266;108782;-75
2022/02/21 17:13:08;;;;;;;127.50;60.10;;;;;;;4.78;57.01;98317.52;131205;1267;108830;-78
2022/02/21 17:16:14;;;;;;;41.20;19.40;;;;;;;4.75;57.14;98318.69;130713;1266;108917;-77
2022/02/21 17:19:20;;;;;;;63.40;30.30;;;;;;;4.71;57.09;98320.27;130462;1266;107458;-74
2022/02/21 17:22:25;;;;;;;80.80;33.90;;;;;;;4.69;57.18;98331.98;130585;1267;108877;-74
2022/02/21 17:25:31;;;;;;;191.50;68.70;;;;;;;4.66;57.28;98330.67;130466;1267;108869;-74
2022/02/21 17:28:37;;;;;;;173.20;72.20;;;;;;;4.65;57.37;98330.77;130707;1267;108643;-71
2022/02/21 17:31:42;;;;;;;86.80;33.90;;;;;;;4.65;57.48;98327.65;130606;1267;108877;-77
2022/02/21 17:34:48;;;;;;;39.40;14.70;;;;;;;4.66;57.63;98324.16;130342;1266;109045;-79
2022/02/21 17:37:54;;;;;;;86.50;32.90;;;;;;;4.68;57.65;98327.66;130811;1267;108714;-77
2022/02/21 17:40:59;;;;;;;225.30;80.90;;;;;;;4.69;57.74;98334.42;130627;1267;108903;-75
2022/02/21 17:44:06;;;;;;;100.70;40.10;;;;;;;4.69;57.74;98339.42;130520;1267;108819;-76
2022/02/21 17:47:11;;;;;;;32.40;15.20;;;;;;;4.65;58.03;98329.61;130576;1267;108809;-78
2022/02/21 17:50:17;;;;;;;20.60;12.30;;;;;;;4.64;58.13;98335.53;130540;1267;108750;-77
2022/02/21 17:53:22;;;;;;;17.70;9.40;;;;;;;4.63;58.20;98333.02;130680;1267;108981;-75
2022/02/21 17:56:27;;;;;;;13.60;7.20;;;;;;;4.65;58.50;98333.11;130424;1267;108940;-77
2022/02/21 17:59:33;;;;;;;14.40;8.80;;;;;;;4.67;58.49;98331.86;130313;1267;108872;-76
2022/02/21 18:02:38;;;;;;;9.40;4.70;;;;;;;4.70;58.56;98329.94;130516;1267;106726;-79
2022/02/21 18:05:44;;;;;;;25.50;11.40;;;;;;;4.71;58.62;98326.15;130619;1267;108448;-80
2022/02/21 18:08:50;;;;;;;16.10;8.30;;;;;;;4.75;58.67;98323.84;130499;1267;108641;-79
2022/02/21 18:11:55;;;;;;;12.60;5.90;;;;;;;4.78;58.56;98326.25;130443;1267;108548;-78
2022/02/21 18:15:01;;;;;;;10.30;5.00;;;;;;;4.82;58.75;98325.84;130413;1266;108963;-78
2022/02/21 18:18:11;;;;;;;10.00;3.90;;;;;;;4.86;58.67;98320.85;130626;1267;108941;-76
2022/02/21 18:21:18;;;;;;;8.80;4.50;;;;;;;4.88;58.67;98320.80;130407;1267;108936;-78
2022/02/21 18:24:24;;;;;;;9.30;3.60;;;;;;;4.89;58.59;98323.85;130712;1266;108739;-77
2022/02/21 18:27:29;;;;;;;7.90;3.80;;;;;;;4.92;58.60;98325.30;130398;1267;108730;-77
2022/02/21 18:30:35;;;;;;;11.80;4.50;;;;;;;4.97;58.63;98327.50;130807;1266;108695;-80
2022/02/21 18:33:41;;;;;;;8.60;4.30;;;;;;;4.97;58.63;98321.38;131600;1267;107651;-77
2022/02/21 18:36:46;;;;;;;8.80;4.10;;;;;;;5.03;58.77;98326.94;130576;1267;108930;-76
2022/02/21 18:39:53;;;;;;;12.90;7.00;;;;;;;5.05;58.75;98324.95;130706;1265;107597;-82
2022/02/21 18:42:59;;;;;;;9.40;5.00;;;;;;;5.06;58.72;98326.98;130675;1267;108626;-76
2022/02/21 18:46:06;;;;;;;15.70;8.20;;;;;;;5.08;58.81;98322.34;130534;1267;108762;-76
2022/02/21 18:49:13;;;;;;;11.30;5.10;;;;;;;5.08;58.78;98321.21;130514;1267;107732;-77
2022/02/21 18:52:19;;;;;;;12.20;5.00;;;;;;;5.08;58.79;98321.84;130580;1267;108598;-79
2022/02/21 18:55:24;;;;;;;10.00;5.20;;;;;;;5.09;58.88;98325.05;130600;1267;108702;-77
2022/02/21 18:58:30;;;;;;;12.60;5.50;;;;;;;5.07;58.88;98321.51;130449;1267;108935;-77
2022/02/21 19:01:36;;;;;;;11.80;5.70;;;;;;;5.09;58.82;98325.61;130451;1267;108601;-78
2022/02/21 19:04:41;;;;;;;14.40;7.10;;;;;;;5.07;58.78;98325.48;130406;1267;108757;-77
2022/02/21 19:07:47;;;;;;;14.10;7.30;;;;;;;5.00;58.89;98326.58;130308;1267;108973;-77
2022/02/21 19:10:52;;;;;;;16.40;8.00;;;;;;;4.92;58.92;98328.89;130416;1267;108735;-77
2022/02/21 19:13:58;;;;;;;14.30;6.50;;;;;;;4.81;58.87;98330.84;130638;1267;108590;-76
2022/02/21 19:17:04;;;;;;;12.10;6.10;;;;;;;4.73;58.94;98337.26;130695;1267;108776;-78
2022/02/21 19:20:11;;;;;;;14.10;5.70;;;;;;;4.63;58.97;98334.92;130514;1267;108664;-78
2022/02/21 19:23:17;;;;;;;10.30;4.70;;;;;;;4.54;58.88;98334.80;130721;1266;108840;-77
2022/02/21 19:26:23;;;;;;;10.80;5.80;;;;;;;4.46;58.98;98342.11;130488;1265;108803;-76
2022/02/21 19:29:29;;;;;;;11.70;5.50;;;;;;;4.37;58.99;98339.78;130574;1267;108750;-79
2022/02/21 19:32:36;;;;;;;12.00;5.30;;;;;;;4.25;59.26;98337.27;130623;1267;108661;-78
2022/02/21 19:35:41;;;;;;;10.00;4.60;;;;;;;4.14;59.30;98338.95;130556;1267;108760;-75
2022/02/21 19:38:48;;;;;;;11.90;5.20;;;;;;;4.06;59.42;98342.08;130499;1267;108716;-76
2022/02/21 19:41:54;;;;;;;10.10;4.50;;;;;;;3.98;59.61;98339.24;130440;1267;108473;-76
2022/02/21 19:44:59;;;;;;;12.00;5.10;;;;;;;3.89;59.47;98339.59;130446;1266;108463;-77
2022/02/21 19:48:05;;;;;;;10.90;5.00;;;;;;;3.81;59.55;98343.02;130589;1267;109161;-82
2022/02/21 19:51:11;;;;;;;11.80;5.20;;;;;;;3.73;59.56;98344.03;130536;1266;108767;-79
2022/02/21 19:54:16;;;;;;;11.60;4.60;;;;;;;3.67;59.83;98342.90;130419;1267;108809;-78
2022/02/21 19:57:22;;;;;;;10.20;4.70;;;;;;;3.61;60.00;98343.01;130374;1267;108899;-82
2022/02/21 20:00:27;;;;;;;10.90;4.30;;;;;;;3.54;60.09;98341.35;130430;1267;108935;-82
2022/02/21 20:03:33;;;;;;;10.30;4.80;;;;;;;3.47;60.11;98336.59;130478;1267;108778;-83
2022/02/21 20:06:39;;;;;;;10.70;4.60;;;;;;;3.42;60.12;98330.27;130584;1267;108706;-82
2022/02/21 20:09:44;;;;;;;10.70;4.90;;;;;;;3.38;60.38;98325.59;130541;1267;108797;-79
2022/02/21 20:12:50;;;;;;;12.10;5.60;;;;;;;3.34;60.25;98321.64;130323;1266;106761;-79
2022/02/21 20:15:55;;;;;;;10.70;5.10;;;;;;;3.28;60.39;98325.68;130496;1267;108731;-77
2022/02/21 20:19:01;;;;;;;12.60;5.20;;;;;;;3.23;60.33;98328.48;130240;1267;108725;-79
2022/02/21 20:22:09;;;;;;;10.10;5.40;;;;;;;3.20;60.50;98318.98;130494;1267;107633;-79
2022/02/21 20:25:15;;;;;;;10.40;4.90;;;;;;;3.16;60.50;98318.45;130410;1266;108692;-78
2022/02/21 20:28:21;;;;;;;11.70;5.10;;;;;;;3.15;60.59;98321.88;130289;1267;108847;-78
2022/02/21 20:31:29;;;;;;;11.70;5.00;;;;;;;3.14;60.60;98320.23;130423;1267;108583;-78
2022/02/21 20:34:35;;;;;;;10.30;5.30;;;;;;;3.12;60.49;98317.48;130520;1267;108016;-79
2022/02/21 20:37:41;;;;;;;14.30;5.90;;;;;;;3.10;60.70;98315.25;130361;1266;108564;-78
2022/02/21 20:40:46;;;;;;;14.10;6.30;;;;;;;3.09;60.60;98317.41;130512;1267;108901;-79
2022/02/21 20:43:52;;;;;;;14.20;6.20;;;;;;;3.06;60.65;98312.65;130498;1266;108784;-79
2022/02/21 20:46:57;;;;;;;14.10;6.40;;;;;;;3.02;60.75;98315.36;130532;1267;108958;-78
2022/02/21 20:50:03;;;;;;;13.30;6.20;;;;;;;3.00;60.77;98317.50;130508;1265;108673;-78
2022/02/21 20:53:08;;;;;;;14.50;6.30;;;;;;;2.98;60.74;98320.98;130402;1267;109183;-78
2022/02/21 20:56:14;;;;;;;15.20;6.50;;;;;;;2.96;60.95;98320.34;130313;1266;108698;-77
2022/02/21 20:59:19;;;;;;;14.70;7.50;;;;;;;2.95;60.98;98320.08;130420;1266;108595;-76
2022/02/21 21:02:25;;;;;;;21.20;9.40;;;;;;;2.94;61.08;98324.89;130401;1267;108745;-76
2022/02/21 21:05:30;;;;;;;17.60;7.90;;;;;;;2.93;61.26;98330.92;130367;1267;108870;-77
2022/02/21 21:08:36;;;;;;;16.40;7.50;;;;;;;2.93;61.19;98328.16;130398;1266;108890;-77
2022/02/21 21:11:41;;;;;;;16.50;7.20;;;;;;;2.92;61.35;98320.34;130388;1266;108733;-76
2022/02/21 21:14:46;;;;;;;17.10;9.50;;;;;;;2.90;61.49;98321.21;130448;1267;108855;-76
2022/02/21 21:17:52;;;;;;;14.10;7.20;;;;;;;2.90;61.49;98322.45;130368;1267;108973;-75
2022/02/21 21:20:57;;;;;;;13.80;6.90;;;;;;;2.92;61.68;98318.62;130394;1267;108807;-76
2022/02/21 21:24:03;;;;;;;15.00;7.20;;;;;;;2.97;61.72;98321.60;130345;1267;108833;-76
2022/02/21 21:27:09;;;;;;;17.00;7.60;;;;;;;3.04;61.79;98321.63;130448;1267;108812;-81
2022/02/21 21:30:14;;;;;;;15.20;7.20;;;;;;;3.11;61.84;98320.05;130692;1266;108724;-80
2022/02/21 21:33:23;;;;;;;15.20;6.80;;;;;;;3.20;62.03;98322.90;130563;1267;108786;-80
2022/02/21 21:36:28;;;;;;;16.20;7.50;;;;;;;3.28;61.95;98321.36;130695;1266;108696;-80
2022/02/21 21:39:34;;;;;;;14.40;6.80;;;;;;;3.36;62.06;98321.59;131095;1267;108838;-79
2022/02/21 21:42:39;;;;;;;19.20;7.30;;;;;;;3.44;61.96;98320.29;130482;1267;108854;-77
2022/02/21 21:45:45;;;;;;;16.10;7.70;;;;;;;3.52;61.98;98320.47;130387;1267;108626;-77
2022/02/21 21:48:50;;;;;;;13.00;6.80;;;;;;;3.58;62.08;98318.33;130377;1266;108948;-76
2022/02/21 21:51:57;;;;;;;16.20;7.20;;;;;;;3.63;62.07;98316.63;130421;1267;108820;-75
2022/02/21 21:55:03;;;;;;;16.50;6.80;;;;;;;3.66;62.00;98311.52;130339;1267;108811;-74
2022/02/21 21:58:10;;;;;;;13.70;6.20;;;;;;;3.71;62.04;98310.30;130487;1267;108749;-76
2022/02/21 22:01:15;;;;;;;14.70;6.70;;;;;;;3.75;62.10;98305.82;130672;1266;108870;-77
2022/02/21 22:04:20;;;;;;;16.20;6.50;;;;;;;3.80;62.10;98309.94;130430;1267;108967;-76
2022/02/21 22:07:26;;;;;;;13.90;6.10;;;;;;;3.82;62.11;98308.27;130322;1267;107764;-77
2022/02/21 22:10:32;;;;;;;12.30;6.10;;;;;;;3.86;62.04;98314.27;130707;1267;108184;-76
2022/02/21 22:13:37;;;;;;;13.50;6.50;;;;;;;3.88;62.05;98313.27;131033;1267;108735;-76
2022/02/21 22:16:42;;;;;;;14.50;6.40;;;;;;;3.91;62.10;98316.71;130947;1267;108776;-76
2022/02/21 22:19:48;;;;;;;16.20;7.20;;;;;;;3.96;62.06;98317.30;131168;1267;107507;-77
2022/02/21 22:22:54;;;;;;;14.80;6.90;;;;;;;3.99;62.06;98319.05;131575;1265;106999;-77
2022/02/21 22:26:00;;;;;;;17.90;7.50;;;;;;;4.03;62.10;98318.88;131418;1266;107725;-76
2022/02/21 22:29:05;;;;;;;17.90;7.50;;;;;;;4.05;62.13;98319.34;131035;1267;107667;-77
2022/02/21 22:32:12;;;;;;;13.50;6.30;;;;;;;4.06;62.22;98318.82;130784;1267;108797;-77
2022/02/21 22:35:18;;;;;;;17.30;7.50;;;;;;;4.08;62.16;98319.85;130392;1267;108856;-79